KUKT/UKT METAR and TAF weather

Enter ICAO airport designator
Station Type Date Time Source
KUKT METAR 2019/12/16 06:00 UTC NOAA

KUKT 160600Z AUTO 26004KT 10SM FEW100 01/M07 A3018 RMK A01


Station Type Date Time Source
KUKT Decoded METAR 2019/12/16 06:00 UTC NOAA

Quakertown, Quakertown Airport, PA, United States (KUKT) 40-26-06N 075-22-54W
Dec 16, 2019 - 01:00 AM EST / 2019.12.16 0600 UTC
Wind: from the W (260 degrees) at 5 MPH (4 KT):0
Visibility: 10 mile(s):0
Sky conditions: mostly clear
Temperature: 33 F (1 C)
Windchill: 28 F (-2 C):1
Dew Point: 19 F (-7 C)
Relative Humidity: 55%
Pressure (altimeter): 30.18 in. Hg (1022 hPa)
ob: KUKT 160600Z AUTO 26004KT 10SM FEW100 01/M07 A3018 RMK A01
cycle: 6

Station Type Date Time Source
KUKT TAF UTC NOAA

Error!

Example: see airport list